Time;durP1;ratioP1;P1;durP2;ratioP2;P2;SDS_P1;SDS_P2;PMS_P1;PMS_P2;Temp;Humidity;BMP_temperature;BMP_pressure;BME280_temperature;BME280_humidity;BME280_pressure;Samples;Min_cycle;Max_cycle;Signal;HPM_P1;HPM_P2
2022/07/15 00:00:34;;;;;;;1999.90;999.90;;;12.60;99.90;;;;;;5047809;28;20060;-76
2022/07/15 00:03:00;;;;;;;1999.90;999.90;;;12.60;99.90;;;;;;5078536;28;20036;-76
2022/07/15 00:05:26;;;;;;;1999.90;999.90;;;12.60;99.90;;;;;;5034306;28;20047;-76
2022/07/15 00:07:52;;;;;;;1999.90;999.90;;;12.70;99.90;;;;;;5067924;28;20048;-76
2022/07/15 00:10:18;;;;;;;1999.90;999.90;;;12.80;99.90;;;;;;5080921;28;20051;-76
2022/07/15 00:12:52;;;;;;;1999.90;999.90;;;12.80;99.90;;;;;;5037627;28;20041;-76
2022/07/15 00:15:20;;;;;;;1999.90;999.90;;;12.90;99.90;;;;;;5054682;28;20087;-76
2022/07/15 00:17:46;;;;;;;1999.90;999.90;;;13.00;99.90;;;;;;5048501;28;20105;-76
2022/07/15 00:20:13;;;;;;;1999.90;999.90;;;13.00;99.90;;;;;;5049959;28;20060;-76
2022/07/15 00:22:40;;;;;;;1999.90;999.90;;;13.10;99.90;;;;;;5034839;28;20075;-76
2022/07/15 00:25:06;;;;;;;1999.90;999.90;;;13.20;99.90;;;;;;5051267;28;20398;-76
2022/07/15 00:27:32;;;;;;;1999.90;999.90;;;13.20;99.90;;;;;;5081124;28;20076;-76
2022/07/15 00:29:57;;;;;;;1999.90;999.90;;;13.20;99.90;;;;;;5052131;28;20064;-75
2022/07/15 00:32:23;;;;;;;1999.90;999.90;;;13.20;99.90;;;;;;5051129;28;20047;-76
2022/07/15 00:34:51;;;;;;;1999.90;999.90;;;13.30;99.90;;;;;;5044817;28;20036;-76
2022/07/15 00:37:17;;;;;;;1999.90;999.90;;;13.30;99.90;;;;;;5067909;28;20401;-75
2022/07/15 00:39:43;;;;;;;1999.90;999.90;;;13.30;99.90;;;;;;5051047;28;20079;-76
2022/07/15 00:42:43;;;;;;;1999.90;999.90;;;13.30;99.90;;;;;;5031269;28;20060;-76
2022/07/15 00:44:57;;;;;;;1999.90;999.90;;;13.20;99.90;;;;;;5049373;28;20044;-76
2022/07/15 00:47:23;;;;;;;1999.90;999.90;;;13.10;99.90;;;;;;5050623;28;20086;-77
2022/07/15 00:49:49;;;;;;;1999.90;999.90;;;13.10;99.90;;;;;;5050113;28;20055;-76
2022/07/15 00:52:15;;;;;;;1999.90;999.90;;;13.00;99.90;;;;;;5051154;28;20056;-76
2022/07/15 00:54:43;;;;;;;1999.90;999.90;;;12.90;99.90;;;;;;5082579;28;20434;-76
2022/07/15 00:57:09;;;;;;;1999.90;999.90;;;12.80;99.90;;;;;;5049954;28;20050;-76
2022/07/15 00:59:37;;;;;;;1999.90;999.90;;;12.80;99.90;;;;;;5083461;28;20041;-76
2022/07/15 01:02:02;;;;;;;1999.90;999.90;;;12.70;99.90;;;;;;5035623;28;20040;-75
2022/07/15 01:04:30;;;;;;;1999.90;999.90;;;12.60;99.90;;;;;;5034426;28;20054;-76
2022/07/15 01:06:56;;;;;;;1999.90;999.90;;;12.60;99.90;;;;;;5082266;28;20127;-76
2022/07/15 01:09:22;;;;;;;1999.90;999.90;;;12.50;99.90;;;;;;5061072;28;20127;-76
2022/07/15 01:11:48;;;;;;;1999.90;999.90;;;12.50;99.90;;;;;;5045007;28;20094;-76
2022/07/15 01:14:14;;;;;;;1999.90;999.90;;;12.40;99.90;;;;;;5055841;28;20094;-75
2022/07/15 01:16:40;;;;;;;1999.90;999.90;;;12.30;99.90;;;;;;5035403;28;20053;-76
2022/07/15 01:19:06;;;;;;;1999.90;999.90;;;12.30;99.90;;;;;;5063767;28;20036;-76
2022/07/15 01:21:31;;;;;;;1999.90;999.90;;;12.20;99.90;;;;;;5075138;28;20405;-76
2022/07/15 01:23:57;;;;;;;1999.90;999.90;;;12.10;99.90;;;;;;5067684;28;20504;-76
2022/07/15 01:26:23;;;;;;;1999.90;999.90;;;12.10;99.90;;;;;;5033534;28;20155;-76
2022/07/15 01:28:48;;;;;;;1999.90;999.90;;;12.00;99.90;;;;;;5065976;28;20040;-75
2022/07/15 01:31:14;;;;;;;1999.90;999.90;;;12.00;99.90;;;;;;5081705;28;20651;-76
2022/07/15 01:33:40;;;;;;;1999.90;999.90;;;12.00;99.90;;;;;;5048903;28;20127;-76
2022/07/15 01:36:06;;;;;;;1999.90;999.90;;;12.00;99.90;;;;;;5031573;28;20505;-76
2022/07/15 01:38:32;;;;;;;1999.90;999.90;;;12.00;99.90;;;;;;5079448;28;20044;-75
2022/07/15 01:40:57;;;;;;;1999.90;999.90;;;12.00;99.90;;;;;;5077739;28;20113;-75
2022/07/15 01:43:23;;;;;;;1999.90;999.90;;;12.00;99.90;;;;;;5064597;28;20044;-75
2022/07/15 01:45:49;;;;;;;1999.90;999.90;;;12.00;99.90;;;;;;5064468;28;20097;-76
2022/07/15 01:51:00;;;;;;;1999.90;999.90;;;11.90;99.90;;;;;;5050619;28;20090;-75
2022/07/15 01:53:28;;;;;;;1999.90;999.90;;;11.90;99.90;;;;;;5064839;28;20075;-76
2022/07/15 01:55:53;;;;;;;1999.90;999.90;;;11.80;99.90;;;;;;5042017;28;20094;-76
2022/07/15 01:58:19;;;;;;;1999.90;999.90;;;11.80;99.90;;;;;;5082261;28;20044;-75
2022/07/15 02:00:45;;;;;;;1999.90;999.90;;;11.80;99.90;;;;;;5030690;28;20123;-76
2022/07/15 02:03:11;;;;;;;1999.90;999.90;;;11.80;99.90;;;;;;5063378;28;20040;-75
2022/07/15 02:05:37;;;;;;;1999.90;999.90;;;11.70;99.90;;;;;;5043474;28;20155;-75
2022/07/15 02:08:04;;;;;;;1999.90;999.90;;;11.70;99.90;;;;;;5081074;28;20055;-76
2022/07/15 02:10:39;;;;;;;1999.90;999.90;;;11.60;99.90;;;;;;5083621;28;20394;-76
2022/07/15 02:13:12;;;;;;;1999.90;999.90;;;11.50;99.90;;;;;;5049113;28;20133;-76
2022/07/15 02:15:38;;;;;;;1999.90;999.90;;;11.40;99.90;;;;;;5066100;28;20127;-76
2022/07/15 02:18:05;;;;;;;1999.90;999.90;;;11.30;99.90;;;;;;5082373;28;20041;-76
2022/07/15 02:20:31;;;;;;;1999.90;999.90;;;11.20;99.90;;;;;;5063274;28;20064;-76
2022/07/15 02:22:58;;;;;;;1999.90;999.90;;;11.10;99.90;;;;;;5057778;28;20039;-76
2022/07/15 02:25:28;;;;;;;1999.90;999.90;;;11.00;99.90;;;;;;5052781;28;20040;-76
2022/07/15 02:27:56;;;;;;;1999.90;999.90;;;11.00;99.90;;;;;;5086609;28;20515;-76
2022/07/15 02:30:24;;;;;;;1999.90;999.90;;;10.90;99.90;;;;;;5032654;28;20498;-75
2022/07/15 02:32:50;;;;;;;1999.90;999.90;;;10.80;99.90;;;;;;5050283;28;20048;-76
2022/07/15 02:35:16;;;;;;;1999.90;999.90;;;10.80;99.90;;;;;;5046820;28;20064;-76
2022/07/15 02:37:42;;;;;;;1999.90;999.90;;;10.70;99.90;;;;;;5082030;28;20498;-76
2022/07/15 02:40:09;;;;;;;1999.90;999.90;;;10.70;99.90;;;;;;5047644;28;20032;-76
2022/07/15 02:42:35;;;;;;;1999.90;999.90;;;10.60;99.90;;;;;;5034194;28;20410;-76
2022/07/15 02:45:01;;;;;;;1999.90;999.90;;;10.60;99.90;;;;;;5058144;28;20049;-76
2022/07/15 02:47:27;;;;;;;1999.90;999.90;;;10.60;99.90;;;;;;5031904;28;20035;-76
2022/07/15 02:49:52;;;;;;;1999.90;999.90;;;10.70;99.90;;;;;;5089158;28;20082;-76
2022/07/15 02:52:18;;;;;;;1999.90;999.90;;;10.70;99.90;;;;;;5075450;28;20399;-76
2022/07/15 02:54:44;;;;;;;1999.90;999.90;;;10.80;99.90;;;;;;5080383;28;20040;-75
2022/07/15 02:57:10;;;;;;;1999.90;999.90;;;10.80;99.90;;;;;;5047783;28;20041;-76
2022/07/15 02:59:36;;;;;;;1999.90;999.90;;;10.90;99.90;;;;;;5071533;28;20044;-76
2022/07/15 03:02:01;;;;;;;1999.90;999.90;;;10.90;99.90;;;;;;5031030;28;20037;-76
2022/07/15 03:04:27;;;;;;;1999.90;999.90;;;10.90;99.90;;;;;;5066013;28;20070;-76
2022/07/15 03:06:52;;;;;;;1999.90;999.90;;;10.90;99.90;;;;;;5048123;28;20044;-76
2022/07/15 03:09:18;;;;;;;1999.90;999.90;;;10.90;99.90;;;;;;5066432;28;20051;-76
2022/07/15 03:11:44;;;;;;;1999.90;999.90;;;10.80;99.90;;;;;;5079209;28;20055;-75
2022/07/15 03:14:10;;;;;;;1999.90;999.90;;;10.80;99.90;;;;;;5032263;28;20046;-75
2022/07/15 03:16:36;;;;;;;1999.90;999.90;;;10.70;99.90;;;;;;5047421;28;20036;-76
2022/07/15 03:19:01;;;;;;;1999.90;999.90;;;10.70;99.90;;;;;;5048087;28;20037;-76
2022/07/15 03:21:27;;;;;;;1999.90;999.90;;;10.60;99.90;;;;;;5075276;28;20047;-76
2022/07/15 03:23:54;;;;;;;1999.90;999.90;;;10.60;99.90;;;;;;5065559;28;20032;-76
2022/07/15 03:26:20;;;;;;;1999.90;999.90;;;10.50;99.90;;;;;;5048346;28;20055;-76
2022/07/15 03:28:46;;;;;;;1999.90;999.90;;;10.50;99.90;;;;;;5027487;28;20033;-76
2022/07/15 03:31:12;;;;;;;1999.90;999.90;;;10.40;99.90;;;;;;5049677;28;20043;-76
2022/07/15 03:33:38;;;;;;;1999.90;999.90;;;10.40;99.90;;;;;;5080812;28;20048;-76
2022/07/15 03:36:05;;;;;;;1999.90;999.90;;;10.50;99.90;;;;;;5047205;28;20041;-76
2022/07/15 03:38:31;;;;;;;1999.90;999.90;;;10.50;99.90;;;;;;5061362;28;20100;-76
2022/07/15 03:40:57;;;;;;;1999.90;999.90;;;10.50;99.90;;;;;;5050904;28;20084;-76
2022/07/15 03:43:26;;;;;;;1999.90;999.90;;;10.60;99.90;;;;;;5069015;28;20579;-76
2022/07/15 03:45:53;;;;;;;1999.90;999.90;;;10.70;99.90;;;;;;5046739;28;20048;-76
2022/07/15 03:48:19;;;;;;;1999.90;999.90;;;10.70;99.90;;;;;;5085078;28;20051;-76
2022/07/15 03:50:44;;;;;;;1999.90;999.90;;;10.80;99.90;;;;;;5084606;28;20423;-76
2022/07/15 03:53:10;;;;;;;1999.90;999.90;;;10.80;99.90;;;;;;5034922;28;20029;-76
2022/07/15 03:55:37;;;;;;;1999.90;999.90;;;10.80;99.90;;;;;;5052251;28;20505;-76
2022/07/15 03:58:03;;;;;;;1999.90;999.90;;;10.90;99.90;;;;;;5046255;28;20040;-76
2022/07/15 04:00:29;;;;;;;1999.90;999.90;;;11.00;99.90;;;;;;5081355;28;20048;-76
2022/07/15 04:02:55;;;;;;;1999.90;999.90;;;11.00;99.90;;;;;;5067671;28;20036;-76
2022/07/15 04:05:20;;;;;;;1999.90;999.90;;;11.10;99.90;;;;;;5067875;28;20032;-76
2022/07/15 04:07:47;;;;;;;1999.90;999.90;;;11.10;99.90;;;;;;5051406;28;20047;-76
2022/07/15 04:10:13;;;;;;;1999.90;999.90;;;11.20;99.90;;;;;;5067433;28;20036;-76
2022/07/15 04:12:39;;;;;;;1999.90;999.90;;;11.20;99.90;;;;;;5084508;28;20044;-76
2022/07/15 04:15:05;;;;;;;1999.90;999.90;;;11.30;99.90;;;;;;5064034;28;20185;-76
2022/07/15 04:17:30;;;;;;;1999.90;999.90;;;11.30;99.90;;;;;;5051725;28;20039;-76
2022/07/15 04:19:56;;;;;;;1999.90;999.90;;;11.40;99.90;;;;;;5051963;28;20036;-76
2022/07/15 04:22:21;;;;;;;1999.90;999.90;;;11.50;99.90;;;;;;5019266;28;20498;-76
2022/07/15 04:24:47;;;;;;;1999.90;999.90;;;11.60;99.90;;;;;;5055091;28;20575;-76
2022/07/15 04:27:13;;;;;;;1999.90;999.90;;;11.60;99.90;;;;;;5048957;28;20037;-76
2022/07/15 04:29:38;;;;;;;1999.90;999.90;;;11.70;99.90;;;;;;5067555;28;20508;-76
2022/07/15 04:32:04;;;;;;;1999.90;999.90;;;11.80;99.90;;;;;;5068132;28;20530;-76
2022/07/15 04:34:30;;;;;;;1999.90;999.90;;;11.90;99.90;;;;;;5068436;28;20402;-76
2022/07/15 04:36:56;;;;;;;1999.90;999.90;;;12.00;99.90;;;;;;5030952;28;20056;-76
2022/07/15 04:39:21;;;;;;;1999.90;999.90;;;12.10;99.90;;;;;;5084412;28;20047;-76
2022/07/15 04:41:47;;;;;;;1999.90;999.90;;;12.20;99.90;;;;;;5084268;28;20546;-76
2022/07/15 04:44:12;;;;;;;1999.90;999.90;;;12.30;99.90;;;;;;5066997;28;20120;-76
2022/07/15 04:46:38;;;;;;;1999.90;999.90;;;12.40;99.90;;;;;;5049659;28;20127;-76
2022/07/15 04:51:48;;;;;;;1999.90;999.90;;;12.50;99.90;;;;;;5049807;28;20048;-76
2022/07/15 04:54:13;;;;;;;1999.90;999.90;;;12.60;99.90;;;;;;5065144;28;20100;-76
2022/07/15 04:56:39;;;;;;;1999.90;999.90;;;12.60;99.90;;;;;;5030760;28;20131;-76
2022/07/15 04:59:04;;;;;;;1999.90;999.90;;;12.60;99.90;;;;;;5048783;28;20044;-76
2022/07/15 05:01:30;;;;;;;1999.90;999.90;;;12.60;99.90;;;;;;5044154;28;20041;-76
2022/07/15 05:03:56;;;;;;;1999.90;999.90;;;12.60;99.90;;;;;;5061097;28;20044;-76
2022/07/15 05:06:22;;;;;;;1999.90;999.90;;;12.50;99.90;;;;;;5035274;28;20040;-76
2022/07/15 05:08:47;;;;;;;1999.90;999.90;;;12.50;99.90;;;;;;5067370;28;20052;-76
2022/07/15 05:11:13;;;;;;;1999.90;999.90;;;12.50;99.90;;;;;;5051145;28;20517;-76
2022/07/15 05:13:39;;;;;;;1999.90;999.90;;;12.50;99.90;;;;;;5076472;28;20041;-76
2022/07/15 05:16:05;;;;;;;1999.90;999.90;;;12.50;99.90;;;;;;5044308;28;20494;-76
2022/07/15 05:18:31;;;;;;;1999.90;999.90;;;12.60;99.90;;;;;;5037145;28;20101;-76
2022/07/15 05:20:56;;;;;;;1999.90;999.90;;;12.80;99.90;;;;;;5064975;28;20044;-76
2022/07/15 05:23:22;;;;;;;1999.90;999.90;;;12.90;99.90;;;;;;5063867;28;20039;-76
2022/07/15 05:25:47;;;;;;;1999.90;999.90;;;12.90;99.90;;;;;;5029395;28;20103;-76
2022/07/15 05:28:13;;;;;;;1999.90;999.90;;;13.00;99.90;;;;;;5031712;28;20510;-76
2022/07/15 05:30:39;;;;;;;1999.90;999.90;;;13.10;99.90;;;;;;5042364;28;20147;-75
2022/07/15 05:33:04;;;;;;;1999.90;999.90;;;13.20;99.90;;;;;;5084743;28;20131;-76
2022/07/15 05:35:30;;;;;;;1999.90;999.90;;;13.30;99.90;;;;;;5034082;28;20997;-76
2022/07/15 05:37:56;;;;;;;1999.90;999.90;;;13.40;99.90;;;;;;5081536;28;20043;-76
2022/07/15 05:40:21;;;;;;;1999.90;999.90;;;13.50;99.90;;;;;;5052940;28;20052;-76
2022/07/15 05:42:47;;;;;;;1999.90;999.90;;;13.60;99.90;;;;;;5043403;28;20158;-76
2022/07/15 05:45:12;;;;;;;1999.90;999.90;;;13.70;99.90;;;;;;5055084;28;20131;-76
2022/07/15 05:47:38;;;;;;;1999.90;999.90;;;13.70;99.90;;;;;;5053865;28;20045;-76
2022/07/15 05:50:06;;;;;;;1999.90;999.90;;;13.80;99.90;;;;;;5081935;28;20779;-76
2022/07/15 05:52:32;;;;;;;1999.90;999.90;;;13.90;99.90;;;;;;5039885;28;20037;-77
2022/07/15 05:54:57;;;;;;;1999.90;999.90;;;14.00;99.90;;;;;;5050639;28;20048;-76
2022/07/15 05:57:23;;;;;;;1999.90;999.90;;;14.10;99.90;;;;;;5031450;28;20483;-76
2022/07/15 05:59:49;;;;;;;1999.90;999.90;;;14.20;99.90;;;;;;5029337;28;20495;-76
2022/07/15 06:02:14;;;;;;;1999.90;999.90;;;14.30;99.90;;;;;;5036406;28;20044;-76
2022/07/15 06:04:40;;;;;;;1999.90;999.90;;;14.40;99.90;;;;;;5034518;28;20513;-76
2022/07/15 06:07:06;;;;;;;1999.90;999.90;;;14.50;99.90;;;;;;5077477;28;20040;-76
2022/07/15 06:09:31;;;;;;;1999.90;999.90;;;14.60;99.90;;;;;;5050750;28;20127;-76
2022/07/15 06:11:58;;;;;;;1999.90;999.90;;;14.70;99.90;;;;;;5080025;28;20040;-76
2022/07/15 06:14:24;;;;;;;1999.90;999.90;;;14.80;99.90;;;;;;5059330;28;20097;-76
2022/07/15 06:16:50;;;;;;;1999.90;999.90;;;15.00;99.90;;;;;;5070958;28;20048;-77
2022/07/15 06:19:15;;;;;;;1999.90;999.90;;;15.10;99.90;;;;;;5038316;28;20129;-77
2022/07/15 06:21:41;;;;;;;1999.90;999.90;;;15.20;99.90;;;;;;5052127;28;20093;-77
2022/07/15 06:24:06;;;;;;;1999.90;999.90;;;15.30;99.90;;;;;;5030310;28;20032;-77
2022/07/15 06:26:32;;;;;;;1999.90;999.90;;;15.40;99.90;;;;;;5043434;28;20074;-77
2022/07/15 06:28:58;;;;;;;1999.90;999.90;;;15.60;99.90;;;;;;5028021;28;20482;-77
2022/07/15 06:31:24;;;;;;;1999.90;999.90;;;15.70;99.90;;;;;;5047885;28;20083;-76
2022/07/15 06:33:49;;;;;;;1999.90;999.90;;;15.80;99.90;;;;;;5040046;28;20048;-76
2022/07/15 06:36:15;;;;;;;1999.90;999.90;;;16.20;99.90;;;;;;5052921;28;20037;-77
2022/07/15 06:38:40;;;;;;;1999.90;999.90;;;17.50;99.90;;;;;;5068987;28;20032;-76
2022/07/15 06:41:06;;;;;;;1999.90;999.90;;;18.90;99.90;;;;;;5055836;28;20052;-77
2022/07/15 06:43:32;;;;;;;1999.90;999.90;;;19.80;99.90;;;;;;5049083;28;20520;-77
2022/07/15 06:45:58;;;;;;;1999.90;999.90;;;20.70;99.90;;;;;;5044311;28;20041;-77
2022/07/15 06:48:23;;;;;;;1999.90;999.90;;;21.10;99.90;;;;;;5046082;28;20052;-77
2022/07/15 06:50:49;;;;;;;1999.90;999.90;;;21.70;99.90;;;;;;5051814;28;20051;-77
2022/07/15 06:53:15;;;;;;;1999.90;999.90;;;22.00;99.90;;;;;;5050599;28;20028;-77
2022/07/15 06:55:41;;;;;;;1999.90;999.90;;;22.20;99.90;;;;;;5055217;28;20530;-77
2022/07/15 06:58:07;;;;;;;1999.90;999.90;;;22.50;99.90;;;;;;5049866;28;20062;-77
2022/07/15 07:00:33;;;;;;;1999.90;999.90;;;22.80;99.90;;;;;;5054392;28;20082;-77
2022/07/15 07:02:58;;;;;;;1999.90;999.90;;;22.90;98.50;;;;;;5036636;28;20089;-76
2022/07/15 07:05:25;;;;;;;1999.90;999.90;;;22.90;96.90;;;;;;5051180;28;20467;-77
2022/07/15 07:07:50;;;;;;;1999.90;999.90;;;22.90;96.50;;;;;;5087987;28;20044;-77
2022/07/15 07:10:16;;;;;;;1999.90;999.90;;;23.00;95.80;;;;;;5069673;28;20067;-77
2022/07/15 07:12:42;;;;;;;1999.90;999.90;;;22.90;96.60;;;;;;5071145;28;20505;-76
2022/07/15 07:15:09;;;;;;;1999.90;999.90;;;22.00;95.10;;;;;;5059168;28;20048;-77
2022/07/15 07:17:35;;;;;;;1999.90;999.90;;;20.90;96.20;;;;;;5081011;28;20048;-76
2022/07/15 07:20:01;;;;;;;1999.90;999.90;;;20.20;99.00;;;;;;5055107;28;20036;-77
2022/07/15 07:22:26;;;;;;;1999.90;999.90;;;20.20;98.10;;;;;;5046329;28;20513;-76
2022/07/15 07:24:53;;;;;;;1999.90;999.90;;;20.90;98.70;;;;;;5052315;28;20456;-76
2022/07/15 07:27:19;;;;;;;1999.90;999.90;;;21.60;96.70;;;;;;5053481;28;20044;-76
2022/07/15 07:29:44;;;;;;;1999.90;999.90;;;21.60;96.30;;;;;;5069964;28;20123;-77
2022/07/15 07:32:10;;;;;;;1999.90;999.90;;;22.00;96.60;;;;;;5050177;28;20048;-77
2022/07/15 07:34:36;;;;;;;1999.90;999.90;;;22.20;94.10;;;;;;5035433;28;20681;-77
2022/07/15 07:37:01;;;;;;;1999.90;999.90;;;22.80;96.00;;;;;;5052061;28;20097;-76
2022/07/15 07:39:27;;;;;;;1999.90;999.90;;;23.20;95.40;;;;;;5046671;28;20130;-77
2022/07/15 07:41:53;;;;;;;1999.90;999.90;;;23.00;92.60;;;;;;5074382;28;20498;-77
2022/07/15 07:44:20;;;;;;;1999.90;999.90;;;22.00;92.80;;;;;;5072696;28;20043;-77
2022/07/15 07:46:46;;;;;;;1999.90;999.90;;;21.30;93.50;;;;;;5055135;28;20052;-76
2022/07/15 07:49:12;;;;;;;1999.90;999.90;;;20.60;94.30;;;;;;5040013;28;20044;-77
2022/07/15 07:51:40;;;;;;;1999.90;999.90;;;19.80;94.30;;;;;;5054668;28;20490;-77
2022/07/15 07:54:09;;;;;;;1999.90;999.90;;;19.60;95.60;;;;;;5057981;28;20401;-76
2022/07/15 07:56:35;;;;;;;1999.90;999.90;;;20.40;96.30;;;;;;5055853;28;20051;-76
2022/07/15 07:59:01;;;;;;;1999.90;999.90;;;20.80;95.90;;;;;;5050814;28;20036;-76
2022/07/15 08:01:26;;;;;;;1999.90;999.90;;;21.40;94.70;;;;;;5055616;28;20036;-75
2022/07/15 08:03:52;;;;;;;1999.90;999.90;;;21.20;94.30;;;;;;5055499;28;20044;-77
2022/07/15 08:06:18;;;;;;;1999.90;999.90;;;20.50;93.40;;;;;;5073962;28;20497;-76
2022/07/15 08:08:44;;;;;;;1999.90;999.90;;;19.90;94.90;;;;;;5049702;28;20112;-76
2022/07/15 08:11:10;;;;;;;1999.90;999.90;;;19.60;95.40;;;;;;5065446;28;20060;-77
2022/07/15 08:13:37;;;;;;;1999.90;999.90;;;19.40;96.30;;;;;;5053315;28;20119;-77
2022/07/15 08:16:03;;;;;;;1999.90;999.90;;;19.50;95.80;;;;;;5048101;28;20052;-77
2022/07/15 08:18:28;;;;;;;1999.90;999.90;;;19.80;96.00;;;;;;5041324;28;20037;-76
2022/07/15 08:20:54;;;;;;;1999.90;999.90;;;20.00;97.00;;;;;;5046159;28;20063;-76
2022/07/15 08:23:21;;;;;;;1999.90;999.90;;;20.20;96.60;;;;;;5080088;28;20037;-77
2022/07/15 08:25:49;;;;;;;1999.90;999.90;;;20.00;95.20;;;;;;5052609;28;20189;-76
2022/07/15 08:28:14;;;;;;;1999.90;999.90;;;20.10;95.40;;;;;;5081827;28;20115;-77
2022/07/15 08:30:40;;;;;;;1999.90;999.90;;;20.50;95.40;;;;;;5074296;28;20193;-76
2022/07/15 08:33:06;;;;;;;1999.90;999.90;;;20.90;94.80;;;;;;5060419;28;20051;-77
2022/07/15 08:35:32;;;;;;;1999.90;999.90;;;21.50;93.30;;;;;;5066921;28;20041;-77
2022/07/15 08:37:58;;;;;;;1999.90;999.90;;;22.10;92.60;;;;;;5031521;28;20032;-76
2022/07/15 08:40:25;;;;;;;1999.90;999.90;;;22.80;93.40;;;;;;5083766;28;20136;-77
2022/07/15 08:42:51;;;;;;;1999.90;999.90;;;22.90;88.30;;;;;;5055684;28;20051;-77
2022/07/15 08:45:17;;;;;;;1999.90;999.90;;;22.60;87.40;;;;;;5062857;28;20504;-77
2022/07/15 08:47:46;;;;;;;1999.90;999.90;;;22.10;89.00;;;;;;5063390;28;20489;-75
2022/07/15 08:50:15;;;;;;;1999.90;999.90;;;21.50;90.70;;;;;;5045618;28;20654;-75
2022/07/15 08:52:43;;;;;;;1999.90;999.90;;;21.00;90.00;;;;;;5047250;28;20040;-77
2022/07/15 08:55:09;;;;;;;1999.90;999.90;;;21.10;92.40;;;;;;5080347;28;20078;-77
2022/07/15 08:57:35;;;;;;;1999.90;999.90;;;21.90;90.90;;;;;;5057746;28;20813;-76
2022/07/15 09:00:03;;;;;;;1999.90;999.90;;;22.20;88.00;;;;;;5061015;28;20033;-77
2022/07/15 09:02:29;;;;;;;1999.90;999.90;;;21.70;85.70;;;;;;5046979;28;20044;-75
2022/07/15 09:05:23;;;;;;;1999.90;999.90;;;21.00;86.20;;;;;;5049777;28;20036;-77
2022/07/15 09:07:54;;;;;;;1999.90;999.90;;;20.40;89.40;;;;;;5048182;28;20048;-77
2022/07/15 09:10:25;;;;;;;1999.90;999.90;;;20.00;90.50;;;;;;5085516;28;20126;-77
2022/07/15 09:12:53;;;;;;;1999.90;999.90;;;20.00;91.50;;;;;;5068522;28;20052;-77
2022/07/15 09:15:33;;;;;;;1999.90;999.90;;;20.20;91.70;;;;;;5075592;28;20123;-77
2022/07/15 09:18:08;;;;;;;1999.90;999.90;;;20.20;91.60;;;;;;5084608;28;20044;-77
2022/07/15 09:20:35;;;;;;;1999.90;999.90;;;20.00;92.20;;;;;;5029125;28;20040;-77
2022/07/15 09:23:01;;;;;;;1999.90;999.90;;;19.80;92.50;;;;;;5043667;28;20432;-77
2022/07/15 09:25:28;;;;;;;1999.90;999.90;;;19.50;93.10;;;;;;5049424;28;20127;-76
2022/07/15 09:27:54;;;;;;;1999.90;999.90;;;19.20;93.70;;;;;;5042172;28;20102;-77
2022/07/15 09:36:21;;;;;;;1999.90;999.90;;;19.00;95.00;;;;;;5048995;28;20044;-77
2022/07/15 09:38:57;;;;;;;1999.90;999.90;;;18.90;94.60;;;;;;5067773;28;20040;-76
2022/07/15 09:41:43;;;;;;;1999.90;999.90;;;19.00;94.80;;;;;;5078728;28;20053;-76
2022/07/15 09:44:16;;;;;;;1999.90;999.90;;;19.10;94.70;;;;;;5082759;28;20082;-76
2022/07/15 09:46:54;;;;;;;1999.90;999.90;;;19.30;95.80;;;;;;5051104;28;20127;-76
2022/07/15 09:49:23;;;;;;;1999.90;999.90;;;19.50;95.50;;;;;;5049753;28;20055;-76
2022/07/15 09:51:54;;;;;;;1999.90;999.90;;;19.60;94.70;;;;;;5075534;28;20044;-77
2022/07/15 09:54:21;;;;;;;1999.90;999.90;;;19.70;94.20;;;;;;5078294;28;20036;-77
2022/07/15 09:56:48;;;;;;;1999.90;999.90;;;19.70;94.20;;;;;;5067429;28;20409;-76
2022/07/15 09:59:15;;;;;;;1999.90;999.90;;;19.80;94.10;;;;;;5038222;28;20691;-76
2022/07/15 10:01:41;;;;;;;1999.90;999.90;;;19.90;93.70;;;;;;5049656;28;20041;-77
2022/07/15 10:04:09;;;;;;;1999.90;999.90;;;20.10;93.50;;;;;;5050265;28;20071;-75
2022/07/15 10:06:38;;;;;;;1999.90;999.90;;;20.50;93.20;;;;;;5084249;28;20051;-77
2022/07/15 10:09:05;;;;;;;1999.90;999.90;;;21.10;94.50;;;;;;5078276;28;20406;-77
2022/07/15 10:11:35;;;;;;;1999.90;999.90;;;21.50;94.40;;;;;;5084190;28;20044;-77
2022/07/15 10:14:19;;;;;;;1999.90;999.90;;;21.50;91.90;;;;;;5067241;28;20127;-76
2022/07/15 10:16:47;;;;;;;1999.90;999.90;;;21.30;91.60;;;;;;5061794;28;20051;-77
2022/07/15 10:19:16;;;;;;;1999.90;999.90;;;20.90;90.80;;;;;;5084028;28;20047;-77
2022/07/15 10:21:53;;;;;;;1999.90;999.90;;;20.70;92.10;;;;;;5069272;28;20149;-76
2022/07/15 10:24:46;;;;;;;1999.90;999.90;;;20.40;91.70;;;;;;5039473;28;20089;-76
2022/07/15 10:27:18;;;;;;;1999.90;999.90;;;20.10;92.00;;;;;;5050105;28;20040;-77
2022/07/15 10:29:44;;;;;;;1999.90;999.90;;;19.80;91.50;;;;;;5067095;28;20497;-77
2022/07/15 10:32:09;;;;;;;1999.90;999.90;;;19.70;92.40;;;;;;5080092;28;20041;-77
2022/07/15 10:34:38;;;;;;;1999.90;999.90;;;19.70;92.80;;;;;;5056113;28;20498;-76
2022/07/15 10:37:10;;;;;;;1999.90;999.90;;;19.70;92.80;;;;;;5083663;28;20048;-76
2022/07/15 10:39:57;;;;;;;1999.90;999.90;;;19.80;93.10;;;;;;5083502;28;20079;-77
2022/07/15 10:42:24;;;;;;;1999.90;999.90;;;20.00;93.60;;;;;;5080129;28;20132;-75
2022/07/15 10:45:03;;;;;;;1999.90;999.90;;;20.40;92.00;;;;;;5033122;28;20086;-77
2022/07/15 10:47:29;;;;;;;1999.90;999.90;;;20.50;92.50;;;;;;5054453;28;20228;-77
2022/07/15 10:49:55;;;;;;;1999.90;999.90;;;20.70;91.80;;;;;;5079218;28;20059;-75
2022/07/15 10:52:23;;;;;;;1999.90;999.90;;;20.70;90.10;;;;;;5054063;28;20036;-74
2022/07/15 10:54:55;;;;;;;1999.90;999.90;;;20.60;90.00;;;;;;5067413;28;20066;-76
2022/07/15 10:57:40;;;;;;;1999.90;999.90;;;20.60;90.10;;;;;;5053955;28;20542;-77
2022/07/15 11:00:24;;;;;;;1999.90;999.90;;;20.50;90.50;;;;;;5047934;28;20165;-78
2022/07/15 11:03:12;;;;;;;1999.90;999.90;;;20.60;90.30;;;;;;5053269;28;20037;-75
2022/07/15 11:06:01;;;;;;;1999.90;999.90;;;21.20;90.90;;;;;;5084152;28;20124;-76
2022/07/15 11:08:36;;;;;;;1999.90;999.90;;;21.50;87.70;;;;;;5071952;28;20049;-76
2022/07/15 11:11:14;;;;;;;1999.90;999.90;;;21.50;87.30;;;;;;5067668;28;20055;-77
2022/07/15 11:13:44;;;;;;;1999.90;999.90;;;21.50;89.40;;;;;;5082597;28;20417;-78
2022/07/15 11:16:14;;;;;;;1999.90;999.90;;;21.40;87.00;;;;;;5046959;28;20044;-77
2022/07/15 11:18:47;;;;;;;1999.90;999.90;;;21.30;87.40;;;;;;5050394;28;20062;-76
2022/07/15 11:21:15;;;;;;;1999.90;999.90;;;21.00;87.80;;;;;;5050524;28;20098;-76
2022/07/15 11:23:45;;;;;;;1999.90;999.90;;;20.80;85.90;;;;;;5032961;28;20439;-76
2022/07/15 11:26:11;;;;;;;1999.90;999.90;;;20.60;87.40;;;;;;5048238;28;20041;-76
2022/07/15 11:28:36;;;;;;;1999.90;999.90;;;20.50;90.10;;;;;;5034661;28;20048;-77
2022/07/15 11:31:02;;;;;;;1999.90;999.90;;;20.70;90.60;;;;;;5048563;28;20090;-77
2022/07/15 11:33:30;;;;;;;1999.90;999.90;;;20.90;90.10;;;;;;5083854;28;20129;-76
2022/07/15 11:35:58;;;;;;;1999.90;999.90;;;21.00;90.30;;;;;;5041230;28;20498;-76
2022/07/15 11:38:36;;;;;;;1999.90;999.90;;;21.10;89.50;;;;;;5082598;28;20036;-76
2022/07/15 11:46:44;;;;;;;1999.90;999.90;;;21.90;90.00;;;;;;5049498;28;20049;-75
2022/07/15 11:49:10;;;;;;;1999.90;999.90;;;21.90;85.80;;;;;;5044103;28;20546;-75
2022/07/15 11:51:36;;;;;;;1999.90;999.90;;;22.10;88.20;;;;;;5049999;28;20492;-77
2022/07/15 11:54:02;;;;;;;1999.90;999.90;;;22.50;88.00;;;;;;5048327;28;20040;-77
2022/07/15 11:56:28;;;;;;;1999.90;999.90;;;22.80;86.50;;;;;;5048256;28;20049;-76
2022/07/15 11:58:56;;;;;;;1999.90;999.90;;;22.90;84.70;;;;;;5044411;28;20044;-77
2022/07/15 12:01:31;;;;;;;1999.90;999.90;;;22.50;86.20;;;;;;5037389;28;20079;-78
2022/07/15 12:03:58;;;;;;;1999.90;999.90;;;22.30;87.30;;;;;;5082559;28;20043;-77
2022/07/15 12:06:27;;;;;;;1999.90;999.90;;;22.00;85.30;;;;;;5080909;28;20048;-76
2022/07/15 12:09:08;;;;;;;1999.90;999.90;;;21.80;83.80;;;;;;5039966;28;20124;-77
2022/07/15 12:11:38;;;;;;;1999.90;999.90;;;21.40;85.50;;;;;;5074553;28;20041;-77
2022/07/15 12:14:18;;;;;;;1999.90;999.90;;;21.10;86.70;;;;;;5039092;28;20123;-75
2022/07/15 12:16:53;;;;;;;1999.90;999.90;;;20.90;88.30;;;;;;5050715;28;20056;-74